Station: EBSP - 18/06/2019 23:51Z (il y a 12 minutes)
EBSP 182350Z AUTO 15008KT CAVOK 18/10 Q1012
Vent du 150º - 8 kt
Visibilité > 10 km et plafond haut ou pas de nuages significatifs
Température: +18ºC - Point de rosée: +10ºC - QNH: 1012 hPa